Time;durP1;ratioP1;P1;durP2;ratioP2;P2;SDS_P1;SDS_P2;PMS_P1;PMS_P2;Temp;Humidity;BMP_temperature;BMP_pressure;BME280_temperature;BME280_humidity;BME280_pressure;Samples;Min_cycle;Max_cycle;Signal;HPM_P1;HPM_P2
2022/05/20 03:56:31;;;;;;;11.15;3.67;;;;;;;13.81;56.48;101302.84;5605778;31;79799;-58
2022/05/20 03:59:36;;;;;;;8.25;3.70;;;;;;;13.81;56.48;101302.84;5583982;32;34659;-58
2022/05/20 04:02:38;;;;;;;7.47;3.90;;;;;;;13.26;65.53;101307.41;5583477;31;34281;-58
2022/05/20 04:05:40;;;;;;;9.82;3.70;;;;;;;13.27;57.81;101302.81;5583638;32;34290;-58
2022/05/20 04:08:43;;;;;;;7.18;4.10;;;;;;;13.36;57.78;101295.78;5589203;31;33318;-58
2022/05/20 04:11:45;;;;;;;7.00;3.72;;;;;;;13.42;58.18;101300.06;5603370;31;34329;-58
2022/05/20 04:14:47;;;;;;;8.25;3.55;;;;;;;13.68;57.60;101303.44;5603060;31;33643;-58
2022/05/20 04:17:49;;;;;;;6.60;3.50;;;;;;;13.78;57.30;101305.28;5603018;31;34332;-58
2022/05/20 04:20:51;;;;;;;6.95;3.95;;;;;;;13.80;68.15;101313.88;5603374;31;33972;-58
2022/05/20 04:23:54;;;;;;;6.75;3.50;;;;;;;13.82;66.04;101303.63;5603340;31;33558;-58
2022/05/20 04:26:56;;;;;;;6.28;3.58;;;;;;;13.93;64.64;101301.66;5602957;31;33749;-58
2022/05/20 04:29:59;;;;;;;6.57;4.00;;;;;;;14.04;64.07;101295.16;5600694;31;33662;-59
2022/05/20 04:33:01;;;;;;;5.65;3.60;;;;;;;14.04;57.77;101298.63;5602786;31;34299;-58
2022/05/20 04:36:06;;;;;;;8.73;3.87;;;;;;;14.28;55.34;101306.00;5607520;31;33365;-59
2022/05/20 04:39:08;;;;;;;11.23;4.20;;;;;;;14.30;57.68;101301.13;5594590;31;33723;-59
2022/05/20 04:48:56;;;;;;;8.07;4.60;;;;;;;14.43;53.62;101316.66;5600264;31;33621;-58
2022/05/20 04:52:02;;;;;;;8.82;4.35;;;;;;;14.44;59.80;101315.59;5601315;31;33891;-58
2022/05/20 04:55:05;;;;;;;9.15;5.30;;;;;;;14.42;58.98;101304.25;5601086;31;34094;-58
2022/05/20 04:58:07;;;;;;;9.02;4.20;;;;;;;14.45;61.04;101305.59;5606858;31;34263;-58
2022/05/20 05:01:16;;;;;;;10.52;4.57;;;;;;;14.62;64.31;101300.59;5583905;31;33674;-58
2022/05/20 05:04:20;;;;;;;7.95;5.12;;;;;;;14.73;57.88;101295.91;5597518;31;33745;-58
2022/05/20 05:07:22;;;;;;;13.55;4.80;;;;;;;14.88;56.11;101301.16;5591333;31;33647;-58
2022/05/20 05:10:28;;;;;;;7.47;5.25;;;;;;;14.88;55.87;101309.25;5588839;31;33901;-58
2022/05/20 05:13:30;;;;;;;;;;;;;;;15.00;54.31;101303.47;5586984;31;34318;-58
2022/05/20 05:16:33;;;;;;;13.48;6.20;;;;;;;15.12;54.51;101303.06;5589352;31;33892;-59
2022/05/20 05:19:37;;;;;;;14.63;5.60;;;;;;;15.28;54.14;101316.09;5589620;31;33646;-58
2022/05/20 05:22:39;;;;;;;11.23;5.28;;;;;;;15.40;54.51;101317.59;5582801;31;33703;-58
2022/05/20 05:25:44;;;;;;;10.60;5.97;;;;;;;15.60;55.70;101319.22;5570241;31;34412;-58
2022/05/20 05:28:46;;;;;;;12.20;6.22;;;;;;;15.78;55.32;101320.34;5573191;31;33696;-58
2022/05/20 05:31:55;;;;;;;14.32;6.05;;;;;;;15.98;53.51;101311.94;5593896;31;33748;-58
2022/05/20 05:34:57;;;;;;;9.90;5.10;;;;;;;16.11;60.30;101302.28;5580506;31;34397;-58
2022/05/20 05:38:00;;;;;;;10.38;6.12;;;;;;;16.29;62.37;101303.31;5570723;31;34342;-59
2022/05/20 05:41:02;;;;;;;15.20;6.60;;;;;;;16.40;54.58;101299.38;5570277;31;33642;-59
2022/05/20 05:44:04;;;;;;;9.43;5.95;;;;;;;16.57;54.12;101293.38;5578216;31;33816;-59
2022/05/20 05:47:07;;;;;;;14.23;6.47;;;;;;;16.83;53.24;101289.16;5596743;31;33231;-58
2022/05/20 05:50:09;;;;;;;12.00;6.65;;;;;;;17.01;52.90;101281.22;5578247;31;33697;-58
2022/05/20 05:53:17;;;;;;;13.13;6.85;;;;;;;17.00;50.74;101293.97;5577192;31;34237;-58
2022/05/20 05:56:19;;;;;;;9.40;6.32;;;;;;;17.08;51.83;101287.81;5572240;31;33802;-58
2022/05/20 05:59:22;;;;;;;14.63;6.25;;;;;;;17.30;53.56;101289.03;5569674;31;33671;-59
2022/05/20 06:02:24;;;;;;;12.23;6.68;;;;;;;17.50;51.94;101282.38;5576460;31;34275;-58
2022/05/20 06:05:27;;;;;;;12.35;6.20;;;;;;;17.62;51.84;101288.88;5578496;31;34373;-58
2022/05/20 06:08:29;;;;;;;14.68;5.75;;;;;;;17.76;50.47;101288.84;5569948;31;33776;-59
2022/05/20 06:11:35;;;;;;;9.05;5.40;;;;;;;17.89;52.07;101286.41;5570857;31;33826;-59
2022/05/20 06:14:38;;;;;;;8.98;5.30;;;;;;;18.01;50.26;101283.94;5584824;31;34096;-58
2022/05/20 06:17:45;;;;;;;15.32;5.65;;;;;;;18.15;47.43;101287.41;5585816;31;33729;-58
2022/05/20 06:20:48;;;;;;;12.93;5.22;;;;;;;18.28;48.69;101277.59;5571932;31;33649;-58
2022/05/20 06:23:50;;;;;;;16.20;5.53;;;;;;;18.55;48.39;101279.34;5568519;32;34360;-59
2022/05/20 06:26:54;;;;;;;13.20;5.70;;;;;;;18.73;46.92;101282.97;5569290;31;33640;-59
2022/05/20 06:29:56;;;;;;;19.23;6.07;;;;;;;18.94;50.53;101273.16;5570958;31;33801;-58
2022/05/20 06:32:58;;;;;;;13.95;6.07;;;;;;;19.12;48.39;101273.19;5579928;31;34234;-58
2022/05/20 06:42:43;;;;;;;13.27;5.00;;;;;;;19.59;43.43;101267.97;5587667;31;33676;-58
2022/05/20 06:45:50;;;;;;;15.60;5.37;;;;;;;19.75;43.57;101271.06;5585891;31;33867;-59
2022/05/20 06:49:13;;;;;;;14.95;5.70;;;;;;;19.66;43.34;101271.06;5587559;31;32444;-58
2022/05/20 06:52:15;;;;;;;14.32;4.53;;;;;;;19.58;45.18;101271.84;5576062;31;33620;-58
2022/05/20 06:55:37;;;;;;;10.23;4.75;;;;;;;19.70;45.47;101281.00;5578413;31;33562;-58
2022/05/20 06:58:40;;;;;;;9.80;5.00;;;;;;;19.71;45.15;101279.06;5583699;31;33714;-59
2022/05/20 07:01:42;;;;;;;9.50;4.82;;;;;;;19.67;42.58;101281.63;5583771;31;33637;-59
2022/05/20 07:05:06;;;;;;;16.67;5.10;;;;;;;19.60;43.12;101277.72;5587861;31;33565;-59
2022/05/20 07:08:09;;;;;;;13.50;4.80;;;;;;;19.45;42.46;101287.97;5586023;31;34407;-58
2022/05/20 07:11:18;;;;;;;16.35;4.60;;;;;;;19.47;43.96;101276.78;5584411;31;33658;-59
2022/05/20 07:14:20;;;;;;;10.70;4.30;;;;;;;19.42;45.23;101277.72;5576449;31;33581;-59
2022/05/20 07:17:24;;;;;;;13.93;4.40;;;;;;;19.42;45.76;101275.00;5568429;31;34334;-59
2022/05/20 07:20:26;;;;;;;11.85;3.65;;;;;;;19.48;45.57;101283.81;5569445;31;33227;-59
2022/05/20 07:23:29;;;;;;;11.82;3.67;;;;;;;19.65;46.33;101281.13;5587539;31;32353;-59
2022/05/20 07:26:32;;;;;;;11.50;4.07;;;;;;;19.78;47.84;101276.66;5600570;31;33674;-59
2022/05/20 07:29:35;;;;;;;10.32;3.75;;;;;;;19.91;45.15;101281.13;5583235;31;34516;-59
2022/05/20 07:32:37;;;;;;;10.70;3.45;;;;;;;19.99;43.08;101287.69;5573981;31;33657;-59
2022/05/20 07:35:39;;;;;;;8.27;3.65;;;;;;;20.06;43.00;101284.47;5568671;31;33623;-59
2022/05/20 07:38:42;;;;;;;15.25;3.70;;;;;;;20.11;40.38;101287.03;5574543;31;34368;-59
2022/05/20 07:41:47;;;;;;;10.02;4.03;;;;;;;20.21;42.01;101281.25;5577340;31;33167;-58
2022/05/20 07:44:50;;;;;;;7.78;3.72;;;;;;;20.30;42.25;101284.78;5581624;31;33622;-58
2022/05/20 07:47:52;;;;;;;8.38;3.30;;;;;;;20.41;40.67;101280.56;5574054;31;33928;-59
2022/05/20 07:50:59;;;;;;;7.72;2.95;;;;;;;20.56;42.78;101276.56;5584891;31;33621;-59
2022/05/20 07:54:08;;;;;;;13.73;3.70;;;;;;;20.79;40.43;101273.56;5580631;31;33593;-59
2022/05/20 07:57:14;;;;;;;7.05;3.37;;;;;;;20.91;40.61;101281.84;5587643;31;33697;-59
2022/05/20 08:00:16;;;;;;;16.45;3.53;;;;;;;21.02;40.31;101280.34;5583016;31;33589;-59
2022/05/20 08:04:52;;;;;;;17.30;3.75;;;;;;;21.12;40.55;101280.00;5588386;31;34319;-59
2022/05/20 08:06:41;;;;;;;10.18;3.30;;;;;;;21.25;40.49;101275.41;5587319;31;34200;-59
2022/05/20 08:09:44;;;;;;;12.73;4.60;;;;;;;21.29;39.38;101267.34;5566888;32;33650;-58
2022/05/20 08:12:47;;;;;;;20.95;4.45;;;;;;;21.33;40.71;101268.31;5580023;31;34040;-59
2022/05/20 08:15:49;;;;;;;10.18;3.42;;;;;;;21.41;40.78;101262.03;5587893;31;33716;-59
2022/05/20 08:18:52;;;;;;;19.62;3.60;;;;;;;21.52;41.90;101263.25;5585728;31;34262;-59
2022/05/20 08:21:55;;;;;;;9.18;3.60;;;;;;;21.57;43.95;101254.84;5575831;31;33663;-59
2022/05/20 08:24:58;;;;;;;15.90;4.20;;;;;;;21.73;40.71;101254.25;5567217;32;33636;-59
2022/05/20 08:28:00;;;;;;;16.10;4.40;;;;;;;21.75;38.10;101251.97;5579293;31;33593;-59
2022/05/20 08:31:02;;;;;;;8.43;3.37;;;;;;;21.79;44.47;101250.19;5586120;31;34230;-59
2022/05/20 08:34:05;;;;;;;5.37;3.20;;;;;;;21.91;40.74;101250.22;5581370;31;34415;-58
2022/05/20 08:37:07;;;;;;;14.60;3.95;;;;;;;21.90;38.26;101247.81;5582996;31;33100;-59
2022/05/20 08:40:13;;;;;;;7.68;3.60;;;;;;;21.83;38.35;101240.19;5579539;31;33536;-59
2022/05/20 08:43:18;;;;;;;40.38;4.62;;;;;;;21.97;39.82;101232.50;5577503;31;33623;-59
2022/05/20 08:46:23;;;;;;;8.55;3.70;;;;;;;22.01;39.56;101236.13;5589636;31;33700;-59
2022/05/20 08:49:26;;;;;;;9.30;3.47;;;;;;;22.15;39.91;101224.97;5589398;31;34494;-59
2022/05/20 08:52:28;;;;;;;9.23;3.58;;;;;;;22.30;39.16;101220.75;5578223;31;33677;-58
2022/05/20 08:55:30;;;;;;;12.57;3.40;;;;;;;22.31;38.05;101221.56;5570534;31;34191;-59
2022/05/20 08:58:35;;;;;;;15.52;3.35;;;;;;;22.22;40.01;101208.81;5580434;31;33474;-60
2022/05/20 09:01:43;;;;;;;30.77;4.68;;;;;;;22.35;39.19;101206.06;5580316;31;33840;-59
2022/05/20 09:04:46;;;;;;;18.85;4.35;;;;;;;22.36;38.28;101213.94;5586162;31;33699;-59
2022/05/20 09:07:59;;;;;;;13.88;4.22;;;;;;;22.46;37.93;101196.31;5587771;31;33724;-60
2022/05/20 09:11:05;;;;;;;10.25;3.95;;;;;;;22.50;38.64;101202.69;5575620;31;33595;-59
2022/05/20 09:17:44;;;;;;;28.85;6.32;;;;;;;22.59;37.70;101186.19;5574068;31;33964;-60
2022/05/20 09:20:52;;;;;;;16.90;3.90;;;;;;;22.61;41.72;101176.50;5583411;31;33798;-60
2022/05/20 09:23:58;;;;;;;19.30;5.03;;;;;;;22.66;39.75;101164.53;5572480;31;33746;-60
2022/05/20 09:27:33;;;;;;;14.38;3.67;;;;;;;22.70;39.31;101177.19;5575455;31;33893;-60
2022/05/20 09:30:38;;;;;;;62.70;7.37;;;;;;;22.70;38.14;101163.50;5579538;31;33723;-60
2022/05/20 09:34:25;;;;;;;15.13;4.22;;;;;;;22.78;38.07;101170.00;5583626;31;34244;-60
2022/05/20 09:37:30;;;;;;;44.40;5.22;;;;;;;22.85;35.97;101166.69;5575101;31;33686;-61
2022/05/20 09:40:37;;;;;;;23.85;4.50;;;;;;;22.91;37.08;101163.38;5577897;31;34352;-61
2022/05/20 09:44:00;;;;;;;15.10;4.60;;;;;;;22.96;37.44;101146.75;5573569;31;33574;-60
2022/05/20 09:47:38;;;;;;;17.02;3.65;;;;;;;23.05;37.97;101145.84;5576769;31;32599;-59
2022/05/20 09:50:57;;;;;;;12.75;3.62;;;;;;;23.13;37.40;101153.88;5575254;31;33602;-61
2022/05/20 09:54:04;;;;;;;10.50;3.58;;;;;;;23.24;36.92;101142.44;5584407;31;33669;-61
2022/05/20 09:57:20;;;;;;;9.13;3.35;;;;;;;23.29;36.42;101151.22;5583690;31;34792;-61
2022/05/20 10:00:32;;;;;;;3.95;3.05;;;;;;;23.29;36.03;101136.75;5585672;31;33811;-60
2022/05/20 10:03:44;;;;;;;7.65;3.08;;;;;;;23.35;35.05;101151.78;5583329;31;33740;-61
2022/05/20 10:06:53;;;;;;;16.17;4.07;;;;;;;23.36;36.68;101153.34;5584121;31;33858;-61
2022/05/20 10:10:07;;;;;;;8.15;3.25;;;;;;;23.37;37.88;101146.72;5574514;31;33733;-61
2022/05/20 10:13:28;;;;;;;27.02;4.80;;;;;;;23.38;35.81;101145.63;5587821;31;34243;-61
2022/05/20 10:16:35;;;;;;;25.25;4.37;;;;;;;23.39;39.73;101145.25;5580596;31;34333;-61
2022/05/20 10:19:52;;;;;;;36.92;5.45;;;;;;;23.37;37.69;101144.78;5577540;31;33793;-59
2022/05/20 10:23:03;;;;;;;39.33;5.95;;;;;;;23.36;40.57;101135.00;5573201;31;33639;-61
2022/05/20 10:26:24;;;;;;;41.42;5.05;;;;;;;23.38;39.40;101129.19;5566560;32;33013;-60
2022/05/20 10:33:30;;;;;;;11.75;3.22;;;;;;;23.42;38.54;101122.66;5571714;31;33907;-61
2022/05/20 10:36:56;;;;;;;15.48;3.45;;;;;;;23.48;38.26;101130.59;5577979;31;33576;-61
2022/05/20 10:40:22;;;;;;;37.83;7.37;;;;;;;23.57;40.21;101131.25;5573444;31;32143;-61
2022/05/20 10:51:26;;;;;;;6.37;3.10;;;;;;;23.58;38.73;101125.44;5551058;31;33436;-60
2022/05/20 10:54:58;;;;;;;36.72;8.07;;;;;;;23.53;37.69;101109.25;5577146;31;34388;-60
2022/05/20 10:58:26;;;;;;;11.32;3.35;;;;;;;23.50;41.33;101104.50;5575072;31;33804;-60
2022/05/20 11:01:40;;;;;;;7.00;3.15;;;;;;;23.48;39.64;101101.31;5584615;31;33723;-60
2022/05/20 11:05:16;;;;;;;12.93;4.10;;;;;;;23.58;38.86;101102.75;5583205;31;34419;-59
2022/05/20 11:08:47;;;;;;;9.85;3.17;;;;;;;23.89;37.71;101089.09;5554881;31;33566;-60
2022/05/20 11:11:59;;;;;;;8.13;3.33;;;;;;;24.10;37.11;101082.56;5584273;31;33748;-59
2022/05/20 11:15:44;;;;;;;6.47;2.90;;;;;;;24.10;37.46;101088.03;5581276;31;33843;-60
2022/05/20 11:19:06;;;;;;;11.50;4.03;;;;;;;24.16;37.19;101078.41;5586144;31;33870;-60
2022/05/20 11:22:44;;;;;;;9.43;3.20;;;;;;;24.10;38.65;101066.91;5583666;31;33728;-60
2022/05/20 11:26:10;;;;;;;7.97;3.00;;;;;;;24.26;37.25;101068.84;5583076;31;32405;-60
2022/05/20 11:29:35;;;;;;;31.92;5.00;;;;;;;24.47;37.21;101066.63;5580587;31;33722;-60
2022/05/20 11:33:19;;;;;;;11.63;3.33;;;;;;;24.52;39.97;101077.31;5580409;31;33650;-59
2022/05/20 11:36:55;;;;;;;4.82;3.00;;;;;;;24.51;35.93;101067.50;5538328;31;34362;-59
2022/05/20 11:40:12;;;;;;;8.20;3.10;;;;;;;24.51;37.69;101055.75;5545174;31;33600;-59
2022/05/20 11:43:42;;;;;;;7.97;3.30;;;;;;;24.60;37.04;101059.06;5586996;31;33215;-59
2022/05/20 11:46:59;;;;;;;8.15;3.10;;;;;;;24.66;37.26;101043.91;5577369;31;33355;-59
2022/05/20 11:50:15;;;;;;;12.13;3.92;;;;;;;24.80;36.30;101035.19;5587088;31;33678;-59
2022/05/20 11:53:41;;;;;;;6.68;3.08;;;;;;;25.07;35.93;101033.37;5570574;31;33708;-58
2022/05/20 11:57:07;;;;;;;8.88;3.15;;;;;;;25.07;35.70;101033.37;5573308;31;33740;-59
2022/05/20 12:00:14;;;;;;;9.82;3.62;;;;;;;25.19;35.21;101032.44;5582426;31;33782;-59
2022/05/20 12:03:21;;;;;;;8.57;3.45;;;;;;;25.17;36.44;101026.56;5567562;32;34455;-59
2022/05/20 12:06:27;;;;;;;8.25;3.62;;;;;;;25.20;36.28;101031.28;5578592;31;34007;-59
2022/05/20 12:09:36;;;;;;;5.47;3.37;;;;;;;25.25;35.83;101018.06;5587137;31;33730;-59
2022/05/20 12:13:16;;;;;;;7.07;3.28;;;;;;;25.30;36.12;101017.78;5582401;31;34001;-59
2022/05/20 12:16:19;;;;;;;8.57;3.45;;;;;;;25.35;36.13;101013.94;5583490;31;33585;-59
2022/05/20 12:26:53;;;;;;;10.70;3.42;;;;;;;25.37;36.46;100997.13;5531958;32;33728;-59
2022/05/20 12:30:07;;;;;;;6.50;3.25;;;;;;;25.41;35.36;101000.69;5533121;31;33579;-59
2022/05/20 12:33:23;;;;;;;6.07;3.40;;;;;;;25.36;35.67;100999.03;5583404;31;34424;-59
2022/05/20 12:36:28;;;;;;;7.75;3.45;;;;;;;25.48;37.17;100990.63;5575489;31;34373;-59
2022/05/20 12:39:51;;;;;;;7.10;3.17;;;;;;;25.47;37.17;100983.56;5572580;31;33699;-59
2022/05/20 12:42:57;;;;;;;14.48;3.65;;;;;;;25.49;36.42;100985.94;5578783;31;34510;-59
2022/05/20 12:46:00;;;;;;;9.00;3.42;;;;;;;25.57;36.62;100979.41;5587670;31;33796;-59
2022/05/20 12:49:02;;;;;;;10.02;3.58;;;;;;;25.63;35.96;100977.94;5570228;31;33674;-59
2022/05/20 12:52:31;;;;;;;6.80;3.12;;;;;;;25.71;35.52;100976.09;5569300;31;33661;-59
2022/05/20 12:55:37;;;;;;;11.12;3.42;;;;;;;25.82;36.59;100976.28;5562040;31;33767;-59
2022/05/20 12:58:39;;;;;;;7.45;3.28;;;;;;;25.86;36.41;100968.87;5584435;31;34300;-59
2022/05/20 13:01:48;;;;;;;7.50;3.50;;;;;;;25.90;36.23;100962.28;5582270;31;33756;-59
2022/05/20 13:05:00;;;;;;;10.30;3.37;;;;;;;25.83;36.51;100964.12;5581176;31;34367;-59
2022/05/20 13:08:14;;;;;;;3.33;2.85;;;;;;;25.86;36.90;100955.16;5570310;32;33621;-60
2022/05/20 13:11:19;;;;;;;6.25;3.10;;;;;;;25.87;36.97;100949.28;5574607;31;33731;-59
2022/05/20 13:14:28;;;;;;;7.78;3.55;;;;;;;26.00;36.92;100944.38;5576859;31;34775;-59
2022/05/20 13:17:32;;;;;;;5.70;3.30;;;;;;;25.90;37.38;100948.56;5570842;31;33185;-59
2022/05/20 13:20:37;;;;;;;6.62;3.40;;;;;;;25.92;36.22;100942.69;5582821;31;33448;-59
2022/05/20 13:23:41;;;;;;;6.72;3.12;;;;;;;25.94;37.13;100948.59;5570202;32;34421;-59
2022/05/20 13:26:44;;;;;;;6.70;3.20;;;;;;;26.01;36.66;100940.47;5569404;31;33299;-59
2022/05/20 13:29:47;;;;;;;5.35;3.00;;;;;;;26.04;37.29;100941.69;5570346;31;33738;-59
2022/05/20 13:32:49;;;;;;;8.23;3.10;;;;;;;26.07;36.92;100938.97;5580679;31;34069;-59
2022/05/20 13:35:53;;;;;;;9.63;3.45;;;;;;;26.05;36.44;100935.00;5579132;31;33948;-59
2022/05/20 13:39:00;;;;;;;6.25;3.10;;;;;;;26.04;36.95;100928.72;5583745;31;34430;-59
2022/05/20 13:42:08;;;;;;;9.35;3.28;;;;;;;26.15;37.53;100923.38;5588173;31;34266;-59
2022/05/20 13:45:13;;;;;;;7.97;3.05;;;;;;;26.11;36.20;100926.06;5589621;31;34453;-59
2022/05/20 13:51:53;;;;;;;7.45;3.40;;;;;;;26.13;37.78;100911.97;5571204;31;33825;-59
2022/05/20 13:55:02;;;;;;;11.07;3.50;;;;;;;26.22;36.00;100907.78;5568370;32;33057;-60
2022/05/20 13:58:05;;;;;;;12.50;3.03;;;;;;;26.20;36.59;100903.81;5569707;31;33731;-59
2022/05/20 14:01:10;;;;;;;14.13;3.10;;;;;;;26.18;37.50;100900.63;5579575;31;33695;-59
2022/05/20 14:04:13;;;;;;;11.32;3.40;;;;;;;26.22;36.94;100895.97;5585976;31;34486;-59
2022/05/20 14:07:27;;;;;;;18.40;4.22;;;;;;;26.32;36.54;100889.81;5588280;31;34373;-60
2022/05/20 14:10:40;;;;;;;13.67;3.50;;;;;;;26.48;37.57;100884.13;5573768;31;34300;-59
2022/05/20 14:13:44;;;;;;;5.47;3.17;;;;;;;26.42;36.27;100885.59;5586299;31;33803;-59
2022/05/20 14:16:51;;;;;;;14.90;3.25;;;;;;;26.40;36.44;100879.72;5587702;31;34503;-60
2022/05/20 14:19:53;;;;;;;;;;;;;;;26.46;37.11;100878.22;5583290;31;33821;-59
2022/05/20 14:22:56;;;;;;;24.42;3.30;;;;;;;26.57;36.92;100870.09;5569200;31;33799;-59
2022/05/20 14:26:01;;;;;;;6.20;2.87;;;;;;;26.60;36.86;100864.63;5570478;31;33816;-59
2022/05/20 14:29:12;;;;;;;8.45;3.20;;;;;;;26.70;35.96;100863.94;5577725;31;33838;-59
2022/05/20 14:32:17;;;;;;;13.18;3.80;;;;;;;26.73;36.74;100853.38;5570251;31;33810;-60
2022/05/20 14:35:25;;;;;;;7.27;3.30;;;;;;;26.71;37.33;100851.75;5569243;31;34390;-59
2022/05/20 14:38:32;;;;;;;4.40;3.50;;;;;;;26.73;37.37;100848.66;5568591;31;31993;-59
2022/05/20 14:41:36;;;;;;;17.08;3.53;;;;;;;26.73;36.20;100843.16;5579000;31;33672;-59
2022/05/20 14:44:47;;;;;;;7.28;3.25;;;;;;;26.87;35.67;100846.03;5587860;31;33914;-59
2022/05/20 14:47:58;;;;;;;9.13;3.50;;;;;;;26.78;36.41;100839.25;5588969;31;33828;-59
2022/05/20 14:51:01;;;;;;;12.63;3.37;;;;;;;26.69;37.30;100836.84;5585979;31;34133;-59
2022/05/20 14:54:04;;;;;;;7.70;3.60;;;;;;;26.62;38.04;100837.56;5582209;31;33938;-59
2022/05/20 14:57:23;;;;;;;4.95;3.22;;;;;;;26.62;37.13;100836.75;5574052;31;34463;-59
2022/05/20 15:00:26;;;;;;;8.13;3.35;;;;;;;26.57;37.79;100837.09;5567968;31;33815;-59
2022/05/20 15:03:40;;;;;;;9.27;3.53;;;;;;;26.57;38.03;100828.84;5567976;32;33685;-59
2022/05/20 15:06:46;;;;;;;7.03;3.58;;;;;;;26.69;37.88;100825.84;5567402;31;34355;-59
2022/05/20 15:09:51;;;;;;;5.62;3.25;;;;;;;26.64;37.81;100828.91;5568230;31;33935;-59
2022/05/20 15:12:54;;;;;;;10.07;3.17;;;;;;;26.70;37.57;100830.94;5580961;31;34703;-59
2022/05/20 15:15:56;;;;;;;7.07;3.30;;;;;;;26.69;37.54;100821.13;5588240;31;33773;-59
2022/05/20 15:18:58;;;;;;;30.52;23.08;;;;;;;26.70;38.05;100830.16;5588656;31;33755;-59
